Terminal Aerodrome Forecast
Issued by NWS

Home | Current Version | Previous Version | Text Only | Print | Product List | Glossary On
Versions: 1 2 3 4 5 6 7 8 9 10 11 12 13 14 15 16 17 18
000
FTUS41 KBOX 240316 AAA
TAFHYA
TAF AMD
KHYA 240316Z 2403/2424 22014KT P6SM FEW090
     FM240900 22008KT 2SM BR BKN003
     FM241600 21008KT 6SM BR BKN150=

USA.gov is the U.S. government's official web portal to all federal, state and local government web resources and services.